Time;durP1;ratioP1;P1;durP2;ratioP2;P2;SDS_P1;SDS_P2;PMS_P1;PMS_P2;Temp;Humidity;BMP_temperature;BMP_pressure;BME280_temperature;BME280_humidity;BME280_pressure;Samples;Min_cycle;Max_cycle;Signal;HPM_P1;HPM_P2
2022/09/26 00:01:03;;;;;;;9.80;5.30;;;;;;;;;;5055330;28;20185;-66
2022/09/26 00:03:29;;;;;;;10.77;6.23;;;;;;;;;;5054747;28;20198;-66
2022/09/26 00:05:59;;;;;;;6.30;5.40;;;;;;;;;;5036959;28;20178;-65
2022/09/26 00:08:25;;;;;;;7.37;5.77;;;;;;;;;;5054976;28;20217;-66
2022/09/26 00:11:01;;;;;;;8.40;6.20;;;;;;;;;;5054649;28;20174;-66
2022/09/26 00:13:28;;;;;;;8.33;5.90;;;;;;;;;;5054383;28;20191;-66
2022/09/26 00:15:55;;;;;;;10.53;6.03;;;;;;;;;;5036482;28;20240;-66
2022/09/26 00:18:21;;;;;;;8.47;6.07;;;;;;;;;;5054279;28;20269;-66
2022/09/26 00:20:47;;;;;;;7.23;5.77;;;;;;;;;;5036738;28;20182;-66
2022/09/26 00:23:13;;;;;;;6.70;6.00;;;;;;;;;;5036335;28;20206;-66
2022/09/26 00:25:49;;;;;;;7.60;6.10;;;;;;;;;;5036454;28;20178;-66
2022/09/26 00:28:15;;;;;;;6.83;6.17;;;;;;;;;;5036110;28;20744;-66
2022/09/26 00:30:43;;;;;;;7.50;5.70;;;;;;;;;;5054229;28;20184;-66
2022/09/26 00:33:09;;;;;;;7.93;5.30;;;;;;;;;;5054388;28;20204;-66
2022/09/26 00:35:35;;;;;;;8.40;6.10;;;;;;;;;;5036195;28;20182;-66
2022/09/26 00:38:01;;;;;;;8.70;6.23;;;;;;;;;;5054219;28;20208;-66
2022/09/26 00:40:27;;;;;;;10.83;6.00;;;;;;;;;;5053946;28;20179;-66
2022/09/26 00:42:53;;;;;;;6.27;5.67;;;;;;;;;;5053902;28;20345;-67
2022/09/26 00:45:20;;;;;;;7.77;5.57;;;;;;;;;;5054195;28;20186;-65
2022/09/26 00:47:48;;;;;;;7.30;5.73;;;;;;;;;;5053717;28;20206;-66
2022/09/26 00:50:24;;;;;;;8.07;5.40;;;;;;;;;;5053692;28;20275;-66
2022/09/26 00:52:56;;;;;;;8.33;5.60;;;;;;;;;;5053575;28;20197;-66
2022/09/26 00:55:25;;;;;;;7.40;5.93;;;;;;;;;;5053075;28;20209;-66
2022/09/26 00:57:56;;;;;;;6.97;5.77;;;;;;;;;;5053559;28;20548;-66
2022/09/26 01:00:22;;;;;;;11.40;5.40;;;;;;;;;;5053863;28;20167;-66
2022/09/26 01:02:50;;;;;;;9.43;5.50;;;;;;;;;;5053600;28;20202;-66
2022/09/26 01:05:18;;;;;;;7.93;5.43;;;;;;;;;;5053489;28;20210;-66
2022/09/26 01:07:44;;;;;;;7.83;5.37;;;;;;;;;;5053457;28;20206;-66
2022/09/26 01:10:11;;;;;;;7.17;5.70;;;;;;;;;;5053349;28;20547;-66
2022/09/26 01:12:37;;;;;;;13.57;5.30;;;;;;;;;;5053408;28;20193;-66
2022/09/26 01:15:04;;;;;;;10.83;6.00;;;;;;;;;;5053304;28;20181;-63
2022/09/26 01:17:30;;;;;;;7.80;5.27;;;;;;;;;;5035371;28;20190;-66
2022/09/26 01:20:07;;;;;;;8.60;5.37;;;;;;;;;;5053389;28;20178;-66
2022/09/26 01:22:52;;;;;;;7.70;5.30;;;;;;;;;;5053472;28;20255;-66
2022/09/26 01:25:21;;;;;;;8.93;5.87;;;;;;;;;;5035332;28;20316;-65
2022/09/26 01:27:53;;;;;;;8.57;5.50;;;;;;;;;;5053256;28;20278;-65
2022/09/26 01:30:20;;;;;;;5.93;5.00;;;;;;;;;;5054760;28;20175;-66
2022/09/26 01:33:06;;;;;;;11.00;5.93;;;;;;;;;;5054966;28;20259;-66
2022/09/26 01:35:51;;;;;;;7.90;5.53;;;;;;;;;;5038045;28;20167;-66
2022/09/26 01:38:20;;;;;;;10.67;6.20;;;;;;;;;;5037148;28;20183;-66
2022/09/26 01:40:52;;;;;;;7.00;5.93;;;;;;;;;;5053455;28;20179;-66
2022/09/26 01:43:29;;;;;;;7.87;6.07;;;;;;;;;;5053056;28;20194;-66
2022/09/26 01:45:58;;;;;;;12.10;6.33;;;;;;;;;;5035314;28;20193;-66
2022/09/26 01:48:30;;;;;;;8.13;5.60;;;;;;;;;;5035188;28;20214;-66
2022/09/26 01:51:01;;;;;;;10.30;6.53;;;;;;;;;;5053453;28;20205;-66
2022/09/26 01:53:31;;;;;;;11.83;5.60;;;;;;;;;;5052804;28;20195;-66
2022/09/26 01:56:00;;;;;;;8.40;6.53;;;;;;;;;;5052933;28;20179;-66
2022/09/26 01:58:28;;;;;;;7.13;6.00;;;;;;;;;;5035126;28;20187;-66
2022/09/26 02:00:57;;;;;;;11.00;6.80;;;;;;;;;;5052947;28;20185;-66
2022/09/26 02:03:26;;;;;;;12.63;6.63;;;;;;;;;;5053010;28;20196;-65
2022/09/26 02:05:54;;;;;;;9.77;7.03;;;;;;;;;;5054847;28;20221;-66
2022/09/26 02:08:20;;;;;;;10.27;6.57;;;;;;;;;;5038960;28;20213;-66
2022/09/26 02:10:48;;;;;;;9.57;7.07;;;;;;;;;;5039113;28;20700;-66
2022/09/26 02:13:16;;;;;;;10.10;6.73;;;;;;;;;;5038753;28;20213;-66
2022/09/26 02:15:43;;;;;;;13.80;7.40;;;;;;;;;;5057074;28;20704;-66
2022/09/26 02:18:29;;;;;;;8.83;6.40;;;;;;;;;;5038797;28;20183;-66
2022/09/26 02:20:57;;;;;;;7.87;6.40;;;;;;;;;;5056767;28;20174;-66
2022/09/26 02:23:23;;;;;;;10.20;6.97;;;;;;;;;;5056838;28;20209;-66
2022/09/26 02:25:50;;;;;;;10.67;6.73;;;;;;;;;;5038737;28;20186;-66
2022/09/26 02:28:16;;;;;;;9.03;6.00;;;;;;;;;;5056810;28;20203;-66
2022/09/26 02:30:44;;;;;;;16.90;6.90;;;;;;;;;;5056303;28;20543;-66
2022/09/26 02:33:10;;;;;;;10.37;6.50;;;;;;;;;;5056499;28;20201;-65
2022/09/26 02:35:54;;;;;;;7.13;6.20;;;;;;;;;;5038463;28;20615;-67
2022/09/26 02:38:21;;;;;;;7.30;6.30;;;;;;;;;;5056719;28;20170;-66
2022/09/26 02:40:55;;;;;;;8.57;6.50;;;;;;;;;;5056309;28;20180;-67
2022/09/26 02:43:24;;;;;;;6.97;5.90;;;;;;;;;;5056220;28;20213;-66
2022/09/26 02:46:07;;;;;;;9.97;7.17;;;;;;;;;;5038328;28;20182;-66
2022/09/26 02:48:47;;;;;;;7.83;6.13;;;;;;;;;;5056433;28;20174;-66
2022/09/26 02:51:32;;;;;;;9.30;6.10;;;;;;;;;;5056285;28;20221;-65
2022/09/26 02:53:58;;;;;;;9.17;6.73;;;;;;;;;;5038016;28;20189;-66
2022/09/26 02:56:44;;;;;;;8.17;6.23;;;;;;;;;;5056085;28;20186;-66
2022/09/26 02:59:23;;;;;;;10.30;6.80;;;;;;;;;;5056265;28;20245;-66
2022/09/26 03:01:49;;;;;;;7.57;6.77;;;;;;;;;;5038012;28;20202;-67
2022/09/26 03:04:23;;;;;;;9.20;7.23;;;;;;;;;;5055749;28;20554;-66
2022/09/26 03:06:50;;;;;;;9.90;6.93;;;;;;;;;;5056053;28;20678;-66
2022/09/26 03:09:17;;;;;;;9.03;7.10;;;;;;;;;;5055811;28;20193;-66
2022/09/26 03:11:44;;;;;;;10.27;7.20;;;;;;;;;;5039066;28;20285;-67
2022/09/26 03:14:11;;;;;;;9.67;6.47;;;;;;;;;;5055660;28;20179;-68
2022/09/26 03:16:39;;;;;;;7.43;6.63;;;;;;;;;;5037900;28;20555;-68
2022/09/26 03:19:16;;;;;;;7.60;6.77;;;;;;;;;;5055060;28;20189;-67
2022/09/26 03:21:44;;;;;;;7.87;6.33;;;;;;;;;;5037789;28;20199;-68
2022/09/26 03:24:10;;;;;;;7.73;6.60;;;;;;;;;;5037572;28;20183;-68
2022/09/26 03:26:36;;;;;;;8.77;6.07;;;;;;;;;;5055264;28;20207;-67
2022/09/26 03:29:02;;;;;;;11.03;6.77;;;;;;;;;;5056264;28;20574;-68
2022/09/26 03:31:28;;;;;;;7.77;6.23;;;;;;;;;;5037344;28;20190;-68
2022/09/26 03:33:54;;;;;;;8.27;6.50;;;;;;;;;;5037840;28;20179;-68
2022/09/26 03:36:23;;;;;;;7.70;5.87;;;;;;;;;;5037376;28;20210;-68
2022/09/26 03:38:49;;;;;;;7.73;6.73;;;;;;;;;;5055350;28;20253;-69
2022/09/26 03:41:15;;;;;;;7.70;6.27;;;;;;;;;;5055039;28;20210;-67
2022/09/26 03:43:42;;;;;;;7.00;5.90;;;;;;;;;;5055829;28;20202;-68
2022/09/26 03:46:10;;;;;;;8.83;6.50;;;;;;;;;;5055610;28;20197;-68
2022/09/26 03:48:36;;;;;;;14.07;6.97;;;;;;;;;;5037174;28;20182;-68
2022/09/26 03:51:06;;;;;;;8.90;6.53;;;;;;;;;;5055049;28;20185;-68
2022/09/26 03:53:33;;;;;;;7.63;6.03;;;;;;;;;;5055073;28;20195;-68
2022/09/26 03:56:02;;;;;;;8.90;5.77;;;;;;;;;;5054944;28;20179;-68
2022/09/26 03:58:28;;;;;;;6.70;6.10;;;;;;;;;;5055414;28;20179;-69
2022/09/26 04:00:54;;;;;;;10.43;7.27;;;;;;;;;;5054928;28;20614;-69
2022/09/26 04:03:20;;;;;;;7.40;6.00;;;;;;;;;;5036897;28;20582;-68
2022/09/26 04:05:46;;;;;;;8.90;5.77;;;;;;;;;;5054777;28;20194;-68
2022/09/26 04:08:12;;;;;;;8.20;6.10;;;;;;;;;;5036776;28;20213;-68
2022/09/26 04:10:38;;;;;;;9.77;6.47;;;;;;;;;;5036833;28;20174;-68
2022/09/26 04:13:04;;;;;;;8.47;5.27;;;;;;;;;;5054617;28;20278;-68
2022/09/26 04:15:30;;;;;;;8.50;6.33;;;;;;;;;;5036699;28;20694;-68
2022/09/26 04:17:56;;;;;;;8.90;6.37;;;;;;;;;;5036590;28;20188;-68
2022/09/26 04:20:22;;;;;;;8.43;5.30;;;;;;;;;;5054389;28;20261;-68
2022/09/26 04:22:48;;;;;;;10.70;5.80;;;;;;;;;;5054265;28;20237;-69
2022/09/26 04:25:14;;;;;;;6.80;6.10;;;;;;;;;;5037037;28;20190;-68
2022/09/26 04:27:40;;;;;;;9.17;6.07;;;;;;;;;;5054309;28;20263;-68
2022/09/26 04:30:06;;;;;;;11.93;6.77;;;;;;;;;;5053374;28;20177;-69
2022/09/26 04:32:32;;;;;;;12.03;6.50;;;;;;;;;;5054211;28;20633;-68
2022/09/26 04:34:58;;;;;;;11.90;6.57;;;;;;;;;;5054344;28;20257;-68
2022/09/26 04:37:24;;;;;;;7.47;5.50;;;;;;;;;;5036216;28;20181;-69
2022/09/26 04:39:50;;;;;;;7.37;5.93;;;;;;;;;;5054265;28;20201;-68
2022/09/26 04:42:16;;;;;;;8.63;5.97;;;;;;;;;;5054073;28;20198;-68
2022/09/26 04:44:42;;;;;;;7.53;5.70;;;;;;;;;;5053954;28;20729;-68
2022/09/26 04:47:10;;;;;;;10.73;6.00;;;;;;;;;;5054033;28;20259;-67
2022/09/26 04:49:36;;;;;;;7.50;5.33;;;;;;;;;;5036074;28;20181;-68
2022/09/26 04:52:02;;;;;;;8.03;5.40;;;;;;;;;;5053829;28;20194;-68
2022/09/26 04:54:27;;;;;;;7.63;5.60;;;;;;;;;;5053800;28;20182;-69
2022/09/26 04:56:53;;;;;;;6.10;5.50;;;;;;;;;;5053721;28;20178;-67
2022/09/26 04:59:19;;;;;;;13.40;6.03;;;;;;;;;;5053696;28;20224;-68
2022/09/26 05:01:46;;;;;;;8.50;4.97;;;;;;;;;;5035756;28;20209;-68
2022/09/26 05:04:12;;;;;;;8.30;5.53;;;;;;;;;;5053741;28;20550;-68
2022/09/26 05:06:38;;;;;;;7.47;5.07;;;;;;;;;;5035718;28;20209;-68
2022/09/26 05:09:04;;;;;;;6.40;5.20;;;;;;;;;;5053989;28;20562;-68
2022/09/26 05:11:31;;;;;;;11.27;5.17;;;;;;;;;;5053526;28;20170;-68
2022/09/26 05:13:57;;;;;;;7.00;5.37;;;;;;;;;;5053691;28;20177;-67
2022/09/26 05:16:24;;;;;;;11.17;4.83;;;;;;;;;;5053677;28;20610;-68
2022/09/26 05:18:53;;;;;;;6.07;4.77;;;;;;;;;;5053563;28;20650;-70
2022/09/26 05:21:19;;;;;;;11.60;5.40;;;;;;;;;;5035796;28;20661;-67
2022/09/26 05:26:41;;;;;;;10.07;5.03;;;;;;;;;;5054031;28;20205;-68
2022/09/26 05:29:08;;;;;;;9.60;4.63;;;;;;;;;;5055419;28;20178;-67
2022/09/26 05:31:35;;;;;;;6.77;4.20;;;;;;;;;;5055118;28;20305;-67
2022/09/26 05:34:01;;;;;;;8.33;4.57;;;;;;;;;;5036890;28;20178;-68
2022/09/26 05:36:27;;;;;;;6.70;4.23;;;;;;;;;;5036084;28;20232;-68
2022/09/26 05:38:53;;;;;;;10.17;4.53;;;;;;;;;;5035464;28;20178;-68
2022/09/26 05:41:19;;;;;;;6.97;4.10;;;;;;;;;;5052754;28;20228;-69
2022/09/26 05:43:46;;;;;;;12.47;5.00;;;;;;;;;;5035447;28;20189;-68
2022/09/26 05:46:12;;;;;;;12.90;5.10;;;;;;;;;;5053275;28;20239;-69
2022/09/26 05:48:39;;;;;;;5.33;4.17;;;;;;;;;;5053416;28;20177;-68
2022/09/26 05:51:08;;;;;;;11.53;4.43;;;;;;;;;;5053242;28;20523;-68
2022/09/26 05:53:34;;;;;;;10.87;4.30;;;;;;;;;;5053103;28;20190;-68
2022/09/26 05:56:00;;;;;;;9.07;4.87;;;;;;;;;;5035169;28;20654;-68
2022/09/26 05:58:33;;;;;;;7.30;4.30;;;;;;;;;;5053058;28;20178;-68
2022/09/26 06:01:07;;;;;;;8.23;3.93;;;;;;;;;;5053523;28;20234;-68
2022/09/26 06:03:33;;;;;;;8.50;4.90;;;;;;;;;;5053023;28;20194;-68
2022/09/26 06:06:03;;;;;;;6.43;4.00;;;;;;;;;;5035171;28;20197;-68
2022/09/26 06:08:29;;;;;;;9.23;4.33;;;;;;;;;;5052874;28;20229;-68
2022/09/26 06:11:03;;;;;;;9.07;4.77;;;;;;;;;;5035232;28;20224;-68
2022/09/26 06:13:29;;;;;;;5.93;3.93;;;;;;;;;;5053223;28;20547;-68
2022/09/26 06:15:56;;;;;;;8.07;4.30;;;;;;;;;;5035094;28;20182;-68
2022/09/26 06:18:22;;;;;;;6.37;3.97;;;;;;;;;;5035089;28;20606;-68
2022/09/26 06:20:48;;;;;;;9.50;3.90;;;;;;;;;;5035066;28;20710;-69
2022/09/26 06:23:14;;;;;;;7.80;4.23;;;;;;;;;;5035031;28;20301;-68
2022/09/26 06:25:41;;;;;;;7.17;3.77;;;;;;;;;;5052912;28;20186;-69
2022/09/26 06:28:07;;;;;;;8.23;4.53;;;;;;;;;;5053029;28;20206;-69
2022/09/26 06:30:33;;;;;;;6.40;3.73;;;;;;;;;;5034994;28;20643;-70
2022/09/26 06:33:00;;;;;;;6.57;3.77;;;;;;;;;;5035152;28;20206;-68
2022/09/26 06:35:26;;;;;;;10.77;4.10;;;;;;;;;;5053366;28;20607;-68
2022/09/26 06:37:52;;;;;;;6.87;3.90;;;;;;;;;;5053113;28;20182;-69
2022/09/26 06:40:18;;;;;;;8.83;4.63;;;;;;;;;;5052730;28;20182;-68
2022/09/26 06:42:45;;;;;;;7.33;3.80;;;;;;;;;;5052761;28;20718;-68
2022/09/26 06:45:11;;;;;;;6.33;3.43;;;;;;;;;;5052692;28;20178;-68
2022/09/26 06:47:37;;;;;;;6.13;3.83;;;;;;;;;;5034676;28;20717;-68
2022/09/26 06:50:03;;;;;;;5.67;3.73;;;;;;;;;;5034656;28;20269;-69
2022/09/26 06:52:33;;;;;;;8.17;4.07;;;;;;;;;;5053211;28;20194;-68
2022/09/26 06:54:59;;;;;;;8.90;4.20;;;;;;;;;;5056144;28;20261;-69
2022/09/26 06:57:25;;;;;;;7.77;4.30;;;;;;;;;;5056088;28;20253;-67
2022/09/26 06:59:51;;;;;;;5.60;3.70;;;;;;;;;;5038297;28;20194;-67
2022/09/26 07:02:18;;;;;;;7.47;3.70;;;;;;;;;;5038199;28;20252;-68
2022/09/26 07:04:45;;;;;;;8.00;3.93;;;;;;;;;;5056103;28;20189;-68
2022/09/26 07:07:10;;;;;;;8.00;3.50;;;;;;;;;;5055712;28;20229;-67
2022/09/26 07:09:39;;;;;;;4.30;3.57;;;;;;;;;;5037849;28;20224;-68
2022/09/26 07:12:06;;;;;;;8.40;3.57;;;;;;;;;;5056180;28;20224;-68
2022/09/26 07:14:31;;;;;;;6.70;3.70;;;;;;;;;;5055855;28;20202;-67
2022/09/26 07:16:57;;;;;;;6.30;3.40;;;;;;;;;;5055530;28;20650;-68
2022/09/26 07:19:23;;;;;;;6.33;3.90;;;;;;;;;;5037691;28;20193;-68
2022/09/26 07:21:49;;;;;;;7.60;3.80;;;;;;;;;;5055503;28;20206;-68
2022/09/26 07:24:15;;;;;;;6.07;4.50;;;;;;;;;;5037791;28;20281;-68
2022/09/26 07:26:41;;;;;;;6.70;4.23;;;;;;;;;;5055564;28;20198;-67
2022/09/26 07:29:08;;;;;;;7.40;4.40;;;;;;;;;;5056238;28;20221;-67
2022/09/26 07:31:34;;;;;;;6.60;4.50;;;;;;;;;;5055480;28;20196;-67
2022/09/26 07:34:02;;;;;;;10.27;4.53;;;;;;;;;;5055444;28;20261;-67
2022/09/26 07:36:28;;;;;;;9.53;5.70;;;;;;;;;;5055624;28;20258;-69
2022/09/26 07:38:54;;;;;;;7.03;4.87;;;;;;;;;;5055407;28;20604;-67
2022/09/26 07:41:20;;;;;;;6.50;4.87;;;;;;;;;;5055439;28;20578;-67
2022/09/26 07:43:46;;;;;;;7.17;4.87;;;;;;;;;;5055282;28;20185;-67
2022/09/26 07:51:41;;;;;;;9.03;4.83;;;;;;;;;;5055634;28;20289;-68
2022/09/26 07:54:07;;;;;;;8.63;4.73;;;;;;;;;;5055733;28;20175;-68
2022/09/26 07:56:33;;;;;;;6.60;4.33;;;;;;;;;;5037162;28;20189;-68
2022/09/26 07:59:04;;;;;;;4.40;4.00;;;;;;;;;;5055224;28;20217;-68
2022/09/26 08:01:30;;;;;;;9.40;4.67;;;;;;;;;;5055056;28;20209;-67
2022/09/26 08:03:57;;;;;;;11.17;4.40;;;;;;;;;;5036624;28;20189;-67
2022/09/26 08:06:23;;;;;;;8.10;4.37;;;;;;;;;;5055123;28;20181;-67
2022/09/26 08:08:52;;;;;;;10.10;3.87;;;;;;;;;;5036774;28;20181;-67
2022/09/26 08:11:19;;;;;;;8.50;4.20;;;;;;;;;;5054663;28;20254;-67
2022/09/26 08:13:46;;;;;;;6.43;3.73;;;;;;;;;;5056344;28;20175;-67
2022/09/26 08:16:18;;;;;;;7.67;4.57;;;;;;;;;;5056545;28;20206;-67
2022/09/26 08:18:44;;;;;;;6.60;3.53;;;;;;;;;;5057369;28;20158;-67
2022/09/26 08:21:10;;;;;;;8.97;3.60;;;;;;;;;;5055932;28;20210;-68
2022/09/26 08:23:36;;;;;;;9.23;3.83;;;;;;;;;;5054404;28;20202;-67
2022/09/26 08:26:02;;;;;;;8.10;3.80;;;;;;;;;;5036256;28;20183;-67
2022/09/26 08:28:28;;;;;;;6.67;4.47;;;;;;;;;;5036073;28;20293;-68
2022/09/26 08:30:56;;;;;;;7.43;4.17;;;;;;;;;;5054047;28;20750;-67
2022/09/26 08:33:23;;;;;;;6.87;3.93;;;;;;;;;;5036242;28;20230;-68
2022/09/26 08:35:49;;;;;;;6.77;4.03;;;;;;;;;;5054488;28;20209;-67
2022/09/26 08:38:16;;;;;;;7.27;4.07;;;;;;;;;;5036011;28;20186;-68
2022/09/26 08:41:02;;;;;;;5.60;3.20;;;;;;;;;;5035934;28;20182;-68
2022/09/26 08:43:39;;;;;;;5.80;2.87;;;;;;;;;;5053802;28;20277;-68
2022/09/26 08:49:22;;;;;;;8.10;3.30;;;;;;;;;;5053954;28;20166;-68
2022/09/26 08:51:50;;;;;;;5.50;3.07;;;;;;;;;;5053785;28;20281;-68
2022/09/26 08:54:18;;;;;;;8.73;3.30;;;;;;;;;;5053435;28;20171;-68
2022/09/26 08:56:53;;;;;;;6.83;3.33;;;;;;;;;;5035703;28;20186;-68
2022/09/26 08:59:35;;;;;;;6.77;3.40;;;;;;;;;;5053792;28;20654;-68
2022/09/26 09:02:03;;;;;;;7.30;3.80;;;;;;;;;;5053613;28;20208;-67
2022/09/26 09:04:48;;;;;;;10.07;4.53;;;;;;;;;;5053408;28;20185;-67
2022/09/26 09:07:21;;;;;;;9.53;3.77;;;;;;;;;;5053472;28;20206;-67
2022/09/26 09:09:48;;;;;;;5.23;3.20;;;;;;;;;;5053203;28;20174;-67
2022/09/26 09:12:23;;;;;;;6.57;3.70;;;;;;;;;;5053307;28;20625;-67
2022/09/26 09:14:58;;;;;;;7.83;3.60;;;;;;;;;;5035075;28;20213;-67
2022/09/26 09:17:33;;;;;;;5.83;3.70;;;;;;;;;;5053140;28;20197;-67
2022/09/26 09:20:06;;;;;;;5.80;3.30;;;;;;;;;;5035474;28;20235;-67
2022/09/26 09:22:43;;;;;;;6.60;3.43;;;;;;;;;;5054519;28;20674;-67
2022/09/26 09:25:09;;;;;;;7.30;3.87;;;;;;;;;;5035319;28;20182;-67
2022/09/26 09:27:41;;;;;;;6.33;3.70;;;;;;;;;;5053380;28;20723;-67
2022/09/26 09:30:34;;;;;;;6.67;3.10;;;;;;;;;;5053323;28;20166;-67
2022/09/26 09:33:01;;;;;;;7.30;4.00;;;;;;;;;;5053174;28;20229;-68
2022/09/26 09:35:30;;;;;;;9.07;3.67;;;;;;;;;;5053064;28;20518;-68
2022/09/26 09:37:57;;;;;;;6.23;3.80;;;;;;;;;;5052784;28;20178;-68
2022/09/26 09:40:29;;;;;;;8.07;3.67;;;;;;;;;;5034926;28;20190;-67
2022/09/26 09:42:59;;;;;;;7.67;3.50;;;;;;;;;;5052931;28;20747;-67
2022/09/26 09:45:29;;;;;;;8.57;4.10;;;;;;;;;;5052765;28;20228;-67
2022/09/26 09:47:56;;;;;;;6.70;3.93;;;;;;;;;;5053231;28;20249;-67
2022/09/26 09:50:22;;;;;;;5.40;3.90;;;;;;;;;;5052873;28;20174;-67
2022/09/26 09:52:57;;;;;;;4.63;3.77;;;;;;;;;;5034822;28;20198;-67
2022/09/26 09:55:45;;;;;;;5.63;4.10;;;;;;;;;;5052787;28;20170;-67
2022/09/26 09:58:19;;;;;;;8.90;4.70;;;;;;;;;;5052762;28;20171;-67
2022/09/26 10:01:00;;;;;;;8.60;4.40;;;;;;;;;;5052883;28;20169;-68
2022/09/26 10:03:27;;;;;;;6.80;4.17;;;;;;;;;;5034799;28;20209;-67
2022/09/26 10:05:56;;;;;;;9.53;3.63;;;;;;;;;;5052784;28;20202;-67
2022/09/26 10:08:28;;;;;;;8.03;3.57;;;;;;;;;;5034766;28;20206;-67
2022/09/26 10:11:07;;;;;;;6.37;4.23;;;;;;;;;;5052723;28;20209;-67
2022/09/26 10:13:34;;;;;;;4.93;3.53;;;;;;;;;;5052764;28;20221;-67
2022/09/26 10:16:02;;;;;;;4.90;3.63;;;;;;;;;;5052296;28;20209;-66
2022/09/26 10:18:30;;;;;;;6.03;3.60;;;;;;;;;;5052576;28;20658;-67
2022/09/26 10:20:59;;;;;;;4.90;3.77;;;;;;;;;;5052611;28;20171;-67
2022/09/26 10:23:31;;;;;;;6.40;3.23;;;;;;;;;;5053070;28;20689;-67
2022/09/26 10:26:01;;;;;;;6.10;3.40;;;;;;;;;;5034550;28;20712;-67
2022/09/26 10:28:28;;;;;;;6.20;4.13;;;;;;;;;;5056530;28;20216;-67
2022/09/26 10:30:59;;;;;;;5.97;3.50;;;;;;;;;;5056418;28;20195;-67
2022/09/26 10:33:32;;;;;;;6.47;3.50;;;;;;;;;;5056450;28;20273;-67
2022/09/26 10:36:09;;;;;;;5.37;4.27;;;;;;;;;;5056477;28;20155;-67
2022/09/26 10:40:43;;;;;;;9.37;4.70;;;;;;;;;;5056124;28;20709;-67
2022/09/26 10:41:37;;;;;;;5.13;3.60;;;;;;;;;;5055846;28;20186;-67
2022/09/26 10:44:03;;;;;;;4.10;3.40;;;;;;;;;;5056343;28;20174;-67
2022/09/26 10:46:30;;;;;;;4.23;3.23;;;;;;;;;;5055899;28;20618;-67
2022/09/26 10:48:59;;;;;;;7.00;3.37;;;;;;;;;;5055997;28;20178;-67
2022/09/26 10:51:28;;;;;;;6.50;3.27;;;;;;;;;;5055761;28;20551;-67
2022/09/26 10:54:03;;;;;;;3.20;2.60;;;;;;;;;;5056128;28;20178;-67
2022/09/26 10:56:30;;;;;;;6.47;3.07;;;;;;;;;;5055853;28;20622;-67
2022/09/26 10:58:58;;;;;;;3.20;2.90;;;;;;;;;;5055796;28;20202;-68
2022/09/26 11:01:26;;;;;;;4.43;2.50;;;;;;;;;;5055600;28;20217;-67
2022/09/26 11:03:54;;;;;;;3.90;2.50;;;;;;;;;;5055974;28;20178;-68
2022/09/26 11:06:26;;;;;;;4.40;2.73;;;;;;;;;;5055656;28;20171;-69
2022/09/26 11:08:53;;;;;;;2.83;2.23;;;;;;;;;;5055664;28;20183;-68
2022/09/26 11:11:21;;;;;;;3.47;2.30;;;;;;;;;;5055387;28;20171;-66
2022/09/26 11:14:02;;;;;;;4.77;2.37;;;;;;;;;;5055965;28;20529;-68
2022/09/26 11:16:28;;;;;;;7.20;3.13;;;;;;;;;;5055731;28;20155;-67
2022/09/26 11:18:55;;;;;;;5.23;2.27;;;;;;;;;;5055610;28;20224;-67
2022/09/26 11:21:26;;;;;;;4.23;2.20;;;;;;;;;;5055525;28;20224;-67
2022/09/26 11:24:05;;;;;;;5.03;2.20;;;;;;;;;;5055349;28;20171;-68
2022/09/26 11:26:35;;;;;;;3.97;2.30;;;;;;;;;;5037177;28;20170;-67
2022/09/26 11:29:12;;;;;;;5.20;2.93;;;;;;;;;;5055195;28;20179;-67
2022/09/26 11:31:41;;;;;;;15.43;8.07;;;;;;;;;;5054846;28;20286;-68
2022/09/26 11:34:11;;;;;;;4.87;2.37;;;;;;;;;;5055082;28;20224;-67
2022/09/26 11:36:45;;;;;;;7.30;2.30;;;;;;;;;;5037175;28;20184;-68
2022/09/26 11:39:17;;;;;;;4.97;2.23;;;;;;;;;;5054478;28;20151;-68
2022/09/26 11:41:49;;;;;;;4.63;2.37;;;;;;;;;;5054927;28;20190;-68
2022/09/26 11:44:18;;;;;;;5.47;2.10;;;;;;;;;;5055495;28;20193;-67
2022/09/26 11:47:07;;;;;;;11.33;2.10;;;;;;;;;;5037120;28;20213;-67
2022/09/26 11:49:52;;;;;;;4.57;2.40;;;;;;;;;;5002003;28;20265;-67
2022/09/26 11:52:28;;;;;;;4.23;2.30;;;;;;;;;;5039253;28;20252;-67
2022/09/26 11:54:57;;;;;;;5.53;2.70;;;;;;;;;;5058104;28;20167;-67
2022/09/26 11:57:33;;;;;;;5.07;2.53;;;;;;;;;;5058502;28;20175;-67
2022/09/26 12:00:25;;;;;;;2.73;2.20;;;;;;;;;;5055166;28;20626;-67
2022/09/26 12:02:54;;;;;;;6.17;2.53;;;;;;;;;;5054811;28;20213;-67
2022/09/26 12:05:24;;;;;;;4.77;2.30;;;;;;;;;;5036901;28;20194;-67
2022/09/26 12:08:08;;;;;;;10.10;3.17;;;;;;;;;;5036785;28;20198;-67
2022/09/26 12:10:49;;;;;;;5.33;2.67;;;;;;;;;;5054591;28;20232;-67
2022/09/26 12:13:21;;;;;;;6.93;2.60;;;;;;;;;;5054332;28;20725;-67
2022/09/26 12:15:53;;;;;;;7.40;3.20;;;;;;;;;;5036510;28;20186;-67
2022/09/26 12:18:25;;;;;;;10.30;3.10;;;;;;;;;;5054340;28;20170;-67
2022/09/26 12:21:05;;;;;;;5.23;2.53;;;;;;;;;;5054278;28;20217;-67
2022/09/26 12:23:42;;;;;;;6.03;2.83;;;;;;;;;;5036286;28;20202;-67
2022/09/26 12:26:14;;;;;;;4.13;2.87;;;;;;;;;;5054324;28;20178;-67
2022/09/26 12:28:56;;;;;;;6.67;3.07;;;;;;;;;;5054076;28;20277;-67
2022/09/26 12:31:30;;;;;;;5.80;2.70;;;;;;;;;;5036249;28;20240;-66
2022/09/26 12:34:22;;;;;;;6.97;2.53;;;;;;;;;;5054351;28;20254;-67
2022/09/26 12:36:55;;;;;;;6.33;2.60;;;;;;;;;;5054465;28;20178;-67
2022/09/26 12:39:47;;;;;;;9.23;2.80;;;;;;;;;;5054147;28;20200;-67
2022/09/26 12:42:31;;;;;;;4.17;2.70;;;;;;;;;;5048629;28;20236;-67
2022/09/26 12:45:16;;;;;;;8.27;3.70;;;;;;;;;;5053809;28;20197;-67
2022/09/26 12:47:42;;;;;;;6.47;2.80;;;;;;;;;;5035974;28;20581;-67
2022/09/26 12:50:14;;;;;;;10.03;2.50;;;;;;;;;;5035413;28;20225;-67
2022/09/26 12:52:40;;;;;;;7.97;2.70;;;;;;;;;;5053814;28;20198;-67
2022/09/26 12:55:16;;;;;;;5.77;2.53;;;;;;;;;;5035837;28;20266;-67
2022/09/26 12:57:56;;;;;;;4.30;2.60;;;;;;;;;;5053822;28;20269;-67
2022/09/26 13:00:22;;;;;;;7.50;2.70;;;;;;;;;;5053718;28;20245;-67
2022/09/26 13:02:49;;;;;;;5.10;2.80;;;;;;;;;;5053791;28;20693;-67
2022/09/26 13:05:26;;;;;;;3.00;2.70;;;;;;;;;;5053595;28;20182;-67
2022/09/26 13:08:11;;;;;;;6.07;2.50;;;;;;;;;;5035473;28;20209;-67
2022/09/26 13:10:40;;;;;;;4.53;2.97;;;;;;;;;;5035464;28;20174;-67
2022/09/26 13:13:23;;;;;;;3.20;1.73;;;;;;;;;;5053420;28;20198;-68
2022/09/26 13:15:49;;;;;;;7.03;2.73;;;;;;;;;;5053737;28;20158;-66
2022/09/26 13:18:17;;;;;;;8.83;3.07;;;;;;;;;;5053219;28;20190;-67
2022/09/26 13:20:45;;;;;;;7.30;2.93;;;;;;;;;;5035432;28;20316;-66
2022/09/26 13:23:19;;;;;;;8.80;3.00;;;;;;;;;;5035283;28;20202;-67
2022/09/26 13:25:49;;;;;;;5.70;3.17;;;;;;;;;;5053466;28;20522;-67
2022/09/26 13:28:24;;;;;;;4.87;2.90;;;;;;;;;;5053135;28;20236;-67
2022/09/26 13:30:58;;;;;;;6.03;3.63;;;;;;;;;;5035021;28;20192;-67
2022/09/26 13:33:27;;;;;;;7.07;4.03;;;;;;;;;;5053416;28;20308;-67
2022/09/26 13:35:55;;;;;;;7.73;3.87;;;;;;;;;;5035286;28;20718;-67
2022/09/26 13:38:21;;;;;;;6.37;3.40;;;;;;;;;;5053064;28;20178;-67
2022/09/26 13:40:53;;;;;;;7.37;4.07;;;;;;;;;;5052915;28;20182;-67
2022/09/26 13:43:33;;;;;;;6.93;3.70;;;;;;;;;;5035031;28;20209;-67
2022/09/26 13:46:02;;;;;;;7.70;4.10;;;;;;;;;;5053045;28;20680;-67
2022/09/26 13:48:37;;;;;;;7.90;3.93;;;;;;;;;;5035017;28;20717;-68
2022/09/26 13:51:09;;;;;;;8.17;4.60;;;;;;;;;;5052933;28;20177;-69
2022/09/26 13:53:42;;;;;;;6.80;4.27;;;;;;;;;;5053100;28;20234;-67
2022/09/26 13:56:29;;;;;;;5.87;4.20;;;;;;;;;;5035110;28;20171;-68
2022/09/26 13:59:09;;;;;;;15.20;5.10;;;;;;;;;;5034806;28;20235;-67
2022/09/26 14:01:35;;;;;;;5.60;4.23;;;;;;;;;;5035682;28;20194;-67
2022/09/26 14:04:32;;;;;;;8.10;4.33;;;;;;;;;;5056735;28;20564;-67
2022/09/26 14:09:58;;;;;;;7.53;5.10;;;;;;;;;;5056679;28;20224;-67
2022/09/26 14:12:49;;;;;;;7.17;4.90;;;;;;;;;;5038655;28;20194;-69
2022/09/26 14:15:17;;;;;;;8.50;5.03;;;;;;;;;;5056780;28;20250;-67
2022/09/26 14:17:43;;;;;;;8.33;4.90;;;;;;;;;;5038681;28;20193;-67
2022/09/26 14:20:19;;;;;;;8.77;5.30;;;;;;;;;;5038741;28;20594;-67
2022/09/26 14:22:52;;;;;;;7.17;4.80;;;;;;;;;;5039248;28;20209;-67
2022/09/26 14:25:37;;;;;;;7.30;4.33;;;;;;;;;;5056517;28;20266;-67
2022/09/26 14:28:15;;;;;;;11.70;7.10;;;;;;;;;;5056411;28;20225;-67
2022/09/26 14:31:01;;;;;;;7.17;5.10;;;;;;;;;;5038548;28;20163;-67
2022/09/26 14:33:27;;;;;;;7.70;5.53;;;;;;;;;;5056241;28;20573;-67
2022/09/26 14:36:13;;;;;;;6.67;4.27;;;;;;;;;;5056428;28;20175;-67
2022/09/26 14:38:39;;;;;;;8.33;4.70;;;;;;;;;;5056259;28;20193;-67
2022/09/26 14:41:16;;;;;;;10.43;5.10;;;;;;;;;;5038433;28;20194;-66
2022/09/26 14:43:42;;;;;;;11.00;5.23;;;;;;;;;;5056218;28;20324;-66
2022/09/26 14:46:16;;;;;;;8.13;5.47;;;;;;;;;;5056355;28;20254;-67
2022/09/26 14:48:42;;;;;;;8.80;4.77;;;;;;;;;;5056278;28;20238;-67
2022/09/26 14:51:14;;;;;;;5.60;4.67;;;;;;;;;;5038222;28;20291;-66
2022/09/26 14:53:44;;;;;;;7.90;4.30;;;;;;;;;;5055923;28;20696;-67
2022/09/26 14:56:11;;;;;;;8.03;4.00;;;;;;;;;;5038194;28;20174;-67
2022/09/26 14:58:37;;;;;;;9.40;4.07;;;;;;;;;;5056629;28;20206;-66
2022/09/26 15:01:22;;;;;;;11.27;4.80;;;;;;;;;;5038908;28;20188;-65
2022/09/26 15:03:50;;;;;;;10.47;5.00;;;;;;;;;;5038892;28;20205;-67
2022/09/26 15:06:16;;;;;;;8.23;4.67;;;;;;;;;;5038871;28;20178;-66
2022/09/26 15:08:42;;;;;;;9.27;4.93;;;;;;;;;;5056736;28;20280;-67
2022/09/26 15:11:23;;;;;;;10.20;4.70;;;;;;;;;;5037967;28;20187;-67
2022/09/26 15:13:51;;;;;;;17.93;15.10;;;;;;;;;;5054824;28;20531;-67